createdAt,value
2018-12-01T00:00:07.976Z,0
2018-12-01T00:01:18.164Z,0
2018-12-01T00:02:28.358Z,0
2018-12-01T00:03:38.544Z,0
2018-12-01T00:04:48.726Z,0
2018-12-01T00:05:58.785Z,0
2018-12-01T00:07:08.968Z,0
2018-12-01T00:08:19.147Z,0
2018-12-01T00:09:29.331Z,0
2018-12-01T00:10:39.240Z,0
2018-12-01T00:11:49.470Z,0
2018-12-01T00:12:59.659Z,0
2018-12-01T00:14:09.841Z,0
2018-12-01T00:15:20.032Z,0
2018-12-01T00:16:30.217Z,0
2018-12-01T00:17:40.451Z,0
2018-12-01T00:18:50.631Z,0
2018-12-01T00:20:00.817Z,0
2018-12-01T00:21:10.999Z,0
2018-12-01T00:22:21.195Z,0
2018-12-01T00:23:31.525Z,0
2018-12-01T00:24:41.707Z,0
2018-12-01T00:25:51.885Z,0
2018-12-01T00:27:02.067Z,0
2018-12-01T00:28:12.246Z,0
2018-12-01T00:29:22.530Z,0
2018-12-01T00:30:32.710Z,0
2018-12-01T00:31:42.889Z,0
2018-12-01T00:32:53.088Z,0
2018-12-01T00:34:03.269Z,0
2018-12-01T00:35:13.553Z,0
2018-12-01T00:36:23.732Z,0
2018-12-01T00:37:33.911Z,0
2018-12-01T00:38:44.137Z,0
2018-12-01T00:39:54.321Z,0
2018-12-01T00:41:04.611Z,0
2018-12-01T00:42:14.788Z,0
2018-12-01T00:43:24.974Z,0
2018-12-01T00:44:35.151Z,0
2018-12-01T00:45:45.336Z,0
2018-12-01T00:46:55.567Z,0
2018-12-01T00:48:05.762Z,0
2018-12-01T00:49:15.943Z,0
2018-12-01T00:50:26.146Z,0
2018-12-01T00:51:36.326Z,0
2018-12-01T00:52:46.613Z,0
2018-12-01T00:53:56.796Z,0
2018-12-01T00:55:06.978Z,0
2018-12-01T00:56:17.164Z,0
2018-12-01T00:57:27.351Z,0
2018-12-01T00:58:37.597Z,0
2018-12-01T00:59:47.780Z,0
2018-12-01T01:00:57.964Z,0
2018-12-01T01:02:08.145Z,0
2018-12-01T01:03:18.334Z,0
2018-12-01T01:04:28.693Z,0
2018-12-01T01:05:38.610Z,0
2018-12-01T01:06:48.792Z,0
2018-12-01T01:07:58.976Z,0
2018-12-01T01:09:08.888Z,0
2018-12-01T01:10:19.118Z,0
2018-12-01T01:11:29.296Z,0
2018-12-01T01:12:40.453Z,0
2018-12-01T01:13:50.633Z,0
2018-12-01T01:15:00.819Z,0
2018-12-01T01:16:11.048Z,0
2018-12-01T01:17:21.230Z,0
2018-12-01T01:18:31.434Z,0
2018-12-01T01:19:41.617Z,0
2018-12-01T01:20:51.808Z,0
2018-12-01T01:22:02.145Z,0
2018-12-01T01:23:12.338Z,0
2018-12-01T01:24:22.522Z,0
2018-12-01T01:25:32.710Z,0
2018-12-01T01:26:42.890Z,0
2018-12-01T01:27:53.169Z,0
2018-12-01T01:29:03.354Z,0
2018-12-01T01:30:13.534Z,0
2018-12-01T01:31:23.722Z,0
2018-12-01T01:32:33.900Z,0
2018-12-01T01:33:44.230Z,0
2018-12-01T01:34:54.416Z,0
2018-12-01T01:36:04.629Z,0
2018-12-01T01:37:14.810Z,0
2018-12-01T01:38:24.994Z,0
2018-12-01T01:39:35.225Z,0
2018-12-01T01:40:45.419Z,0
2018-12-01T01:41:55.612Z,0
2018-12-01T01:43:05.797Z,0
2018-12-01T01:44:15.978Z,0
2018-12-01T01:45:26.303Z,0
2018-12-01T01:46:36.487Z,0
2018-12-01T01:47:46.675Z,0
2018-12-01T01:48:56.865Z,0
2018-12-01T01:50:07.047Z,0
2018-12-01T01:51:17.277Z,0
2018-12-01T01:52:27.457Z,0
2018-12-01T01:53:37.648Z,0
2018-12-01T01:54:47.840Z,0
2018-12-01T01:55:58.027Z,0
2018-12-01T01:57:08.276Z,0
2018-12-01T01:58:18.461Z,0
2018-12-01T01:59:28.651Z,0
2018-12-01T02:00:38.838Z,0
2018-12-01T02:01:49.032Z,0
2018-12-01T02:02:59.370Z,0
2018-12-01T02:04:09.554Z,0
2018-12-01T02:05:19.739Z,0
2018-12-01T02:06:29.923Z,0
2018-12-01T02:07:40.109Z,0
2018-12-01T02:08:50.393Z,0
2018-12-01T02:10:00.587Z,0
2018-12-01T02:11:10.769Z,0
2018-12-01T02:12:20.959Z,0
2018-12-01T02:13:31.147Z,0
2018-12-01T02:14:41.486Z,0
2018-12-01T02:15:51.673Z,0
2018-12-01T02:17:02.067Z,0
2018-12-01T02:18:12.257Z,0
2018-12-01T02:19:22.454Z,0
2018-12-01T02:20:32.791Z,0
2018-12-01T02:21:42.976Z,0
2018-12-01T02:22:53.170Z,0
2018-12-01T02:24:03.358Z,0
2018-12-01T02:25:13.544Z,0
2018-12-01T02:26:23.557Z,0
2018-12-01T02:27:33.739Z,0
2018-12-01T02:28:43.929Z,0
2018-12-01T02:29:54.120Z,0
2018-12-01T02:31:04.316Z,0
2018-12-01T02:32:14.693Z,0
2018-12-01T02:33:24.898Z,0
2018-12-01T02:34:35.102Z,0
2018-12-01T02:35:45.306Z,0
2018-12-01T02:36:55.524Z,0
2018-12-01T02:38:05.824Z,0
2018-12-01T02:39:16.010Z,0
2018-12-01T02:40:25.953Z,0
2018-12-01T02:41:36.186Z,0
2018-12-01T02:42:46.381Z,0
2018-12-01T02:43:56.344Z,0
2018-12-01T02:45:06.542Z,0
2018-12-01T02:46:16.732Z,0
2018-12-01T02:47:26.929Z,0
2018-12-01T02:48:37.111Z,0
2018-12-01T02:49:47.399Z,0
2018-12-01T02:50:57.585Z,0
2018-12-01T02:52:07.776Z,0
2018-12-01T02:53:17.957Z,0
2018-12-01T02:54:28.146Z,0
2018-12-01T02:55:38.129Z,0
2018-12-01T02:56:48.316Z,0
2018-12-01T02:57:58.511Z,0
2018-12-01T02:59:08.700Z,0
2018-12-01T03:00:18.886Z,0
2018-12-01T03:01:29.168Z,0
2018-12-01T03:02:39.390Z,0
2018-12-01T03:03:49.574Z,0
2018-12-01T03:04:59.757Z,0
2018-12-01T03:06:09.937Z,0
2018-12-01T03:07:20.263Z,0
2018-12-01T03:08:30.447Z,0
2018-12-01T03:09:40.635Z,0
2018-12-01T03:10:50.816Z,0
2018-12-01T03:12:00.999Z,0
2018-12-01T03:13:11.229Z,0
2018-12-01T03:14:21.408Z,0
2018-12-01T03:15:31.604Z,0
2018-12-01T03:16:41.787Z,0
2018-12-01T03:17:51.973Z,0
2018-12-01T03:19:02.157Z,0
2018-12-01T03:20:12.068Z,0
2018-12-01T03:21:22.258Z,0
2018-12-01T03:22:32.451Z,0
2018-12-01T03:23:42.632Z,0
2018-12-01T03:24:52.912Z,0
2018-12-01T03:26:03.091Z,0
2018-12-01T03:27:13.272Z,0
2018-12-01T03:28:23.450Z,0
2018-12-01T03:29:33.643Z,0
2018-12-01T03:30:43.957Z,0
2018-12-01T03:31:54.157Z,0
2018-12-01T03:33:04.426Z,0
2018-12-01T03:34:14.612Z,0
2018-12-01T03:35:24.808Z,0
2018-12-01T03:36:35.143Z,0
2018-12-01T03:37:45.351Z,0
2018-12-01T03:38:55.541Z,0
2018-12-01T03:40:05.720Z,0
2018-12-01T03:41:15.902Z,0
2018-12-01T03:42:26.195Z,0
2018-12-01T03:43:36.375Z,0
2018-12-01T03:44:46.551Z,0
2018-12-01T03:45:56.729Z,0
2018-12-01T03:47:06.919Z,0
2018-12-01T03:48:17.153Z,0
2018-12-01T03:49:27.353Z,0
2018-12-01T03:50:37.534Z,0
2018-12-01T03:51:47.725Z,0
2018-12-01T03:52:57.906Z,0
2018-12-01T03:54:08.239Z,0
2018-12-01T03:55:18.419Z,0
2018-12-01T03:56:28.597Z,0
2018-12-01T03:57:38.776Z,0
2018-12-01T03:58:48.951Z,0
2018-12-01T03:59:59.181Z,0
2018-12-01T04:01:09.365Z,0
2018-12-01T04:02:19.545Z,0
2018-12-01T04:03:29.779Z,0
2018-12-01T04:04:39.691Z,0
2018-12-01T04:05:49.922Z,0
2018-12-01T04:07:00.105Z,0
2018-12-01T04:08:10.281Z,0
2018-12-01T04:09:20.464Z,0
2018-12-01T04:10:30.675Z,0
2018-12-01T04:11:41.011Z,0
2018-12-01T04:12:51.192Z,0
2018-12-01T04:14:01.372Z,0
2018-12-01T04:15:11.551Z,0
2018-12-01T04:16:21.732Z,0
2018-12-01T04:17:32.061Z,0
2018-12-01T04:18:42.239Z,0
2018-12-01T04:19:52.421Z,0
2018-12-01T04:21:02.605Z,0
2018-12-01T04:22:12.833Z,0
2018-12-01T04:23:23.108Z,0
2018-12-01T04:24:33.285Z,0
2018-12-01T04:25:43.462Z,0
2018-12-01T04:26:53.642Z,0
2018-12-01T04:28:03.822Z,0
2018-12-01T04:29:14.152Z,0
2018-12-01T04:30:24.337Z,0
2018-12-01T04:31:34.516Z,0
2018-12-01T04:32:44.700Z,0
2018-12-01T04:33:54.933Z,0
2018-12-01T04:35:05.209Z,0
2018-12-01T04:36:15.387Z,0
2018-12-01T04:37:25.574Z,0
2018-12-01T04:38:35.755Z,0
2018-12-01T04:39:45.662Z,0
2018-12-01T04:40:55.990Z,0
2018-12-01T04:42:06.167Z,0
2018-12-01T04:43:16.083Z,0
2018-12-01T04:44:26.261Z,0
2018-12-01T04:45:36.446Z,0
2018-12-01T04:46:46.675Z,0
2018-12-01T04:47:56.865Z,0
2018-12-01T04:49:07.048Z,0
2018-12-01T04:50:17.235Z,0
2018-12-01T04:51:27.414Z,0
2018-12-01T04:52:37.648Z,0
2018-12-01T04:53:47.825Z,0
2018-12-01T04:54:58.004Z,0
2018-12-01T04:56:08.186Z,0
2018-12-01T04:57:18.370Z,0
2018-12-01T04:58:28.656Z,0
2018-12-01T04:59:38.839Z,0
2018-12-01T05:00:49.028Z,0
2018-12-01T05:01:58.941Z,0
2018-12-01T05:03:09.134Z,0
2018-12-01T05:04:19.419Z,0
2018-12-01T05:05:29.617Z,0
2018-12-01T05:06:39.794Z,0
2018-12-01T05:07:49.981Z,0
2018-12-01T05:09:00.162Z,0
2018-12-01T05:10:10.468Z,0
2018-12-01T05:11:20.651Z,0
2018-12-01T05:12:30.829Z,0
2018-12-01T05:13:41.017Z,0
2018-12-01T05:14:51.209Z,0
2018-12-01T05:16:01.442Z,0
2018-12-01T05:17:11.619Z,0
2018-12-01T05:18:21.796Z,0
2018-12-01T05:19:31.981Z,0
2018-12-01T05:20:42.158Z,0
2018-12-01T05:21:52.492Z,0
2018-12-01T05:23:02.673Z,0
2018-12-01T05:24:12.855Z,0
2018-12-01T05:25:22.772Z,0
2018-12-01T05:26:32.951Z,0
2018-12-01T05:27:43.193Z,0
2018-12-01T05:28:53.375Z,0
2018-12-01T05:30:03.557Z,0
2018-12-01T05:31:13.747Z,0
2018-12-01T05:32:23.670Z,0
2018-12-01T05:33:33.897Z,0
2018-12-01T05:34:44.079Z,0
2018-12-01T05:35:54.257Z,0
2018-12-01T05:37:04.439Z,0
2018-12-01T05:38:14.649Z,0
2018-12-01T05:39:24.875Z,0
2018-12-01T05:40:35.054Z,0
2018-12-01T05:41:45.239Z,0
2018-12-01T05:42:55.426Z,0
2018-12-01T05:44:05.617Z,0
2018-12-01T05:45:15.898Z,0
2018-12-01T05:46:26.084Z,0
2018-12-01T05:47:36.263Z,0
2018-12-01T05:48:46.461Z,0
2018-12-01T05:49:56.641Z,0
2018-12-01T05:51:06.985Z,0
2018-12-01T05:52:17.160Z,0
2018-12-01T05:53:27.336Z,0
2018-12-01T05:54:37.517Z,0
2018-12-01T05:55:47.701Z,0
2018-12-01T05:56:57.927Z,0
2018-12-01T05:58:08.104Z,0
2018-12-01T05:59:18.287Z,0
2018-12-01T06:00:28.470Z,0
2018-12-01T06:01:38.649Z,0
2018-12-01T06:02:48.984Z,0
2018-12-01T06:03:59.161Z,0
2018-12-01T06:05:09.341Z,0
2018-12-01T06:06:19.519Z,0
2018-12-01T06:07:29.695Z,0
2018-12-01T06:08:39.976Z,0
2018-12-01T06:09:50.167Z,0
2018-12-01T06:11:00.349Z,0
2018-12-01T06:12:10.544Z,0
2018-12-01T06:13:20.722Z,0
2018-12-01T06:14:31.063Z,0
2018-12-01T06:15:40.975Z,0
2018-12-01T06:16:51.163Z,0
2018-12-01T06:18:01.358Z,0
2018-12-01T06:19:11.537Z,0
2018-12-01T06:20:21.782Z,0
2018-12-01T06:21:31.975Z,0
2018-12-01T06:22:42.155Z,0
2018-12-01T06:23:52.335Z,0
2018-12-01T06:25:02.263Z,0
2018-12-01T06:26:12.549Z,0
2018-12-01T06:27:22.754Z,0
2018-12-01T06:28:32.948Z,0
2018-12-01T06:29:43.128Z,0
2018-12-01T06:30:53.308Z,0
2018-12-01T06:32:03.648Z,0
2018-12-01T06:33:13.824Z,0
2018-12-01T06:34:24.016Z,0
2018-12-01T06:35:34.196Z,0
2018-12-01T06:36:44.375Z,0
2018-12-01T06:37:54.340Z,0
2018-12-01T06:39:04.523Z,0
2018-12-01T06:40:14.699Z,0
2018-12-01T06:41:24.886Z,0
2018-12-01T06:42:35.070Z,0
2018-12-01T06:43:45.350Z,0
2018-12-01T06:44:55.527Z,0
2018-12-01T06:46:05.709Z,0
2018-12-01T06:47:15.892Z,0
2018-12-01T06:48:26.077Z,0
2018-12-01T06:49:36.357Z,0
2018-12-01T06:50:46.534Z,0
2018-12-01T06:51:56.719Z,0
2018-12-01T06:53:06.899Z,0
2018-12-01T06:54:17.079Z,0
2018-12-01T06:55:27.406Z,0
2018-12-01T06:56:37.594Z,0
2018-12-01T06:57:47.769Z,0
2018-12-01T06:58:57.958Z,0
2018-12-01T07:00:08.140Z,0
2018-12-01T07:01:18.419Z,0
2018-12-01T07:02:28.597Z,0
2018-12-01T07:03:38.786Z,0
2018-12-01T07:04:48.963Z,0
2018-12-01T07:05:59.144Z,0
2018-12-01T07:07:09.209Z,0
2018-12-01T07:08:19.397Z,0
2018-12-01T07:09:29.579Z,0
2018-12-01T07:10:39.765Z,0
2018-12-01T07:11:49.954Z,0
2018-12-01T07:13:00.296Z,0
2018-12-01T07:14:10.481Z,0
2018-12-01T07:15:20.122Z,0
2018-12-01T07:16:30.302Z,0
2018-12-01T07:17:40.481Z,0
2018-12-01T07:18:50.721Z,0
2018-12-01T07:20:00.903Z,0
2018-12-01T07:21:11.094Z,0
2018-12-01T07:22:21.273Z,0
2018-12-01T07:23:31.453Z,0
2018-12-01T07:24:41.786Z,0
2018-12-01T07:25:51.962Z,0
2018-12-01T07:27:02.148Z,0
2018-12-01T07:28:12.332Z,0
2018-12-01T07:29:22.511Z,0
2018-12-01T07:30:32.788Z,0
2018-12-01T07:31:42.969Z,0
2018-12-01T07:32:53.167Z,0
2018-12-01T07:34:03.360Z,0
2018-12-01T07:35:13.545Z,0
2018-12-01T07:36:23.829Z,0
2018-12-01T07:37:34.014Z,0
2018-12-01T07:38:43.927Z,0
2018-12-01T07:39:54.113Z,0
2018-12-01T07:41:04.297Z,0
2018-12-01T07:42:14.672Z,0
2018-12-01T07:43:24.851Z,0
2018-12-01T07:44:35.034Z,5
2018-12-01T07:45:45.218Z,5
2018-12-01T07:46:55.397Z,5
2018-12-01T07:48:05.634Z,5
2018-12-01T07:49:15.819Z,5
2018-12-01T07:50:26.750Z,10
2018-12-01T07:51:36.929Z,10
2018-12-01T07:52:47.110Z,10
2018-12-01T07:53:57.389Z,10
2018-12-01T07:55:07.570Z,10
2018-12-01T07:56:17.753Z,15
2018-12-01T07:57:27.933Z,15
2018-12-01T07:58:38.114Z,15
2018-12-01T07:59:48.442Z,15
2018-12-01T08:00:58.362Z,15
2018-12-01T08:02:08.547Z,15
2018-12-01T08:03:18.728Z,15
2018-12-01T08:04:28.909Z,15
2018-12-01T08:05:38.918Z,15
2018-12-01T08:06:49.101Z,15
2018-12-01T08:07:59.278Z,15
2018-12-01T08:09:09.460Z,15
2018-12-01T08:10:19.645Z,20
2018-12-01T08:11:29.978Z,20
2018-12-01T08:12:40.155Z,20
2018-12-01T08:13:50.342Z,25
2018-12-01T08:15:00.519Z,25
2018-12-01T08:16:10.703Z,25
2018-12-01T08:17:21.085Z,25
2018-12-01T08:18:31.268Z,30
2018-12-01T08:19:41.452Z,30
2018-12-01T08:20:52.585Z,30
2018-12-01T08:22:02.818Z,30
2018-12-01T08:23:13.097Z,30
2018-12-01T08:24:23.277Z,30
2018-12-01T08:25:33.463Z,30
2018-12-01T08:26:43.642Z,30
2018-12-01T08:27:53.833Z,30
2018-12-01T08:29:04.160Z,35
2018-12-01T08:30:14.341Z,35
2018-12-01T08:31:24.524Z,35
2018-12-01T08:32:34.705Z,35
2018-12-01T08:33:44.895Z,35
2018-12-01T08:34:55.121Z,35
2018-12-01T08:36:05.318Z,35
2018-12-01T08:37:15.515Z,40
2018-12-01T08:38:25.704Z,40
2018-12-01T08:39:35.880Z,40
2018-12-01T08:40:46.118Z,40
2018-12-01T08:41:56.297Z,35
2018-12-01T08:43:06.481Z,35
2018-12-01T08:44:16.672Z,40
2018-12-01T08:45:26.852Z,40
2018-12-01T08:46:37.183Z,40
2018-12-01T08:47:47.367Z,35
2018-12-01T08:48:57.563Z,35
2018-12-01T08:50:07.743Z,35
2018-12-01T08:51:17.927Z,35
2018-12-01T08:52:28.256Z,35
2018-12-01T08:53:38.434Z,35
2018-12-01T08:54:48.617Z,35
2018-12-01T08:55:58.801Z,40
2018-12-01T08:57:08.981Z,40
2018-12-01T08:58:19.314Z,40
2018-12-01T08:59:29.495Z,40
2018-12-01T09:00:39.676Z,40
2018-12-01T09:01:49.861Z,45
2018-12-01T09:03:00.050Z,45
2018-12-01T09:04:10.392Z,50
2018-12-01T09:05:20.575Z,50
2018-12-01T09:06:30.753Z,55
2018-12-01T09:07:40.934Z,55
2018-12-01T09:08:51.117Z,55
2018-12-01T09:10:01.076Z,60
2018-12-01T09:11:11.260Z,65
2018-12-01T09:12:21.568Z,70
2018-12-01T09:13:31.758Z,70
2018-12-01T09:14:41.941Z,75
2018-12-01T09:15:52.171Z,70
2018-12-01T09:17:02.352Z,70
2018-12-01T09:18:12.540Z,70
2018-12-01T09:19:22.719Z,70
2018-12-01T09:20:32.901Z,70
2018-12-01T09:21:43.185Z,65
2018-12-01T09:22:53.367Z,60
2018-12-01T09:24:03.554Z,60
2018-12-01T09:25:13.739Z,65
2018-12-01T09:26:23.921Z,60
2018-12-01T09:27:34.260Z,55
2018-12-01T09:28:44.180Z,50
2018-12-01T09:29:54.366Z,50
2018-12-01T09:31:04.546Z,50
2018-12-01T09:32:14.725Z,50
2018-12-01T09:33:24.957Z,55
2018-12-01T09:34:35.138Z,50
2018-12-01T09:35:45.320Z,55
2018-12-01T09:36:55.507Z,60
2018-12-01T09:38:05.747Z,55
2018-12-01T09:39:16.029Z,55
2018-12-01T09:40:26.215Z,55
2018-12-01T09:41:36.401Z,60
2018-12-01T09:42:46.585Z,60
2018-12-01T09:43:56.766Z,60
2018-12-01T09:45:06.995Z,60
2018-12-01T09:46:17.178Z,60
2018-12-01T09:47:27.359Z,70
2018-12-01T09:48:37.536Z,75
2018-12-01T09:49:47.727Z,80
2018-12-01T09:50:58.043Z,85
2018-12-01T09:52:08.227Z,85
2018-12-01T09:53:18.409Z,85
2018-12-01T09:54:28.592Z,80
2018-12-01T09:55:38.507Z,75
2018-12-01T09:56:48.756Z,75
2018-12-01T09:57:58.942Z,75
2018-12-01T09:59:09.124Z,80
2018-12-01T10:00:19.308Z,70
2018-12-01T10:01:29.505Z,65
2018-12-01T10:02:39.743Z,65
2018-12-01T10:03:49.934Z,60
2018-12-01T10:05:00.124Z,55
2018-12-01T10:06:10.306Z,60
2018-12-01T10:07:20.226Z,60
2018-12-01T10:08:30.564Z,65
2018-12-01T10:09:40.748Z,70
2018-12-01T10:10:50.937Z,65
2018-12-01T10:12:01.114Z,70
2018-12-01T10:13:11.033Z,65
2018-12-01T10:14:21.363Z,65
2018-12-01T10:15:31.545Z,60
2018-12-01T10:16:41.728Z,55
2018-12-01T10:17:51.938Z,60
2018-12-01T10:19:06.269Z,65
2018-12-01T10:20:16.503Z,60
2018-12-01T10:21:26.708Z,65
2018-12-01T10:22:36.897Z,70
2018-12-01T10:23:47.077Z,90
2018-12-01T10:24:57.267Z,90
2018-12-01T10:26:07.608Z,90
2018-12-01T10:27:17.790Z,145
2018-12-01T10:28:27.972Z,245
2018-12-01T10:29:38.898Z,140
2018-12-01T10:30:49.079Z,170
2018-12-01T10:31:59.365Z,350
2018-12-01T10:33:09.548Z,250
2018-12-01T10:34:19.732Z,130
2018-12-01T10:35:29.914Z,115
2018-12-01T10:36:40.102Z,120
2018-12-01T10:37:50.331Z,140
2018-12-01T10:39:06.135Z,140
2018-12-01T10:40:16.332Z,135
2018-12-01T10:41:26.511Z,135
2018-12-01T10:42:36.693Z,140
2018-12-01T10:43:46.990Z,135
2018-12-01T10:44:57.169Z,135
2018-12-01T10:46:07.917Z,140
2018-12-01T10:47:18.099Z,125
2018-12-01T10:48:28.287Z,120
2018-12-01T10:49:38.468Z,105
2018-12-01T10:50:48.649Z,90
2018-12-01T10:51:58.836Z,85
2018-12-01T10:53:09.015Z,85
2018-12-01T10:54:19.192Z,85
2018-12-01T10:55:29.470Z,75
2018-12-01T10:56:39.403Z,80
2018-12-01T10:57:49.584Z,90
2018-12-01T10:58:59.769Z,95
2018-12-01T11:00:09.953Z,95
2018-12-01T11:01:20.244Z,100
2018-12-01T11:02:30.424Z,105
2018-12-01T11:03:40.608Z,105
2018-12-01T11:04:50.790Z,100
2018-12-01T11:06:00.972Z,105
2018-12-01T11:07:11.253Z,100
2018-12-01T11:08:21.432Z,100
2018-12-01T11:09:31.610Z,95
2018-12-01T11:10:41.807Z,90
2018-12-01T11:11:51.999Z,85
2018-12-01T11:13:02.186Z,90
2018-12-01T11:14:12.102Z,90
2018-12-01T11:15:22.288Z,90
2018-12-01T11:16:32.470Z,100
2018-12-01T11:17:42.652Z,100
2018-12-01T11:18:52.985Z,115
2018-12-01T11:20:03.171Z,115
2018-12-01T11:21:13.359Z,115
2018-12-01T11:22:23.541Z,110
2018-12-01T11:23:33.728Z,100
2018-12-01T11:24:43.912Z,100
2018-12-01T11:25:54.098Z,170
2018-12-01T11:27:04.289Z,195
2018-12-01T11:28:14.473Z,150
2018-12-01T11:29:24.390Z,110
2018-12-01T11:30:34.575Z,130
2018-12-01T11:31:44.503Z,130
2018-12-01T11:32:54.690Z,205
2018-12-01T11:34:04.876Z,170
2018-12-01T11:35:15.055Z,155
2018-12-01T11:36:25.240Z,165
2018-12-01T11:37:35.426Z,145
2018-12-01T11:38:45.610Z,135
2018-12-01T11:39:55.796Z,260
2018-12-01T11:41:05.714Z,205
2018-12-01T11:42:15.994Z,195
2018-12-01T11:43:26.182Z,105
2018-12-01T11:44:36.366Z,100
2018-12-01T11:45:46.562Z,100
2018-12-01T11:46:56.750Z,120
2018-12-01T11:48:07.085Z,120
2018-12-01T11:49:17.004Z,250
2018-12-01T11:50:27.233Z,300
2018-12-01T11:51:37.416Z,295
2018-12-01T11:52:47.609Z,205
2018-12-01T11:53:57.795Z,135
2018-12-01T11:55:07.982Z,115
2018-12-01T11:56:18.164Z,220
2018-12-01T11:57:28.356Z,185
2018-12-01T11:58:38.541Z,160
2018-12-01T11:59:48.831Z,125
2018-12-01T12:00:59.027Z,100
2018-12-01T12:02:10.442Z,80
2018-12-01T12:03:20.638Z,85
2018-12-01T12:04:30.823Z,90
2018-12-01T12:05:41.062Z,90
2018-12-01T12:06:51.244Z,85
2018-12-01T12:08:01.431Z,90
2018-12-01T12:09:11.617Z,95
2018-12-01T12:10:21.803Z,125
2018-12-01T12:11:32.045Z,145
2018-12-01T12:12:42.230Z,155
2018-12-01T12:13:52.415Z,190
2018-12-01T12:15:02.605Z,115
2018-12-01T12:16:12.790Z,105
2018-12-01T12:17:23.020Z,105
2018-12-01T12:18:33.891Z,110
2018-12-01T12:19:44.513Z,105
2018-12-01T12:20:54.706Z,105
2018-12-01T12:22:04.892Z,100
2018-12-01T12:23:15.175Z,90
2018-12-01T12:24:25.091Z,90
2018-12-01T12:25:35.288Z,85
2018-12-01T12:26:45.477Z,85
2018-12-01T12:27:55.395Z,85
2018-12-01T12:29:05.685Z,80
2018-12-01T12:30:15.871Z,75
2018-12-01T12:31:26.056Z,70
2018-12-01T12:32:35.976Z,65
2018-12-01T12:33:46.159Z,55
2018-12-01T12:34:56.497Z,60
2018-12-01T12:36:06.691Z,60
2018-12-01T12:37:16.882Z,55
2018-12-01T12:38:27.068Z,60
2018-12-01T12:39:37.252Z,60
2018-12-01T12:40:47.534Z,60
2018-12-01T12:41:57.718Z,60
2018-12-01T12:43:07.921Z,65
2018-12-01T12:44:17.840Z,65
2018-12-01T12:45:28.030Z,75
2018-12-01T12:46:38.962Z,80
2018-12-01T12:47:49.158Z,80
2018-12-01T12:48:59.348Z,80
2018-12-01T12:50:09.533Z,85
2018-12-01T12:51:19.727Z,85
2018-12-01T12:52:30.008Z,85
2018-12-01T12:53:40.192Z,80
2018-12-01T12:54:50.102Z,80
2018-12-01T12:56:00.018Z,80
2018-12-01T12:57:10.219Z,80
2018-12-01T12:58:20.502Z,85
2018-12-01T12:59:30.686Z,80
2018-12-01T13:00:41.542Z,80
2018-12-01T13:01:51.732Z,75
2018-12-01T13:03:01.916Z,80
2018-12-01T13:04:12.198Z,80
2018-12-01T13:05:22.120Z,85
2018-12-01T13:06:32.305Z,80
2018-12-01T13:07:42.483Z,75
2018-12-01T13:08:52.670Z,70
2018-12-01T13:10:02.855Z,65
2018-12-01T13:11:13.041Z,65
2018-12-01T13:12:23.226Z,65
2018-12-01T13:13:33.406Z,60
2018-12-01T13:14:43.595Z,60
2018-12-01T13:15:53.611Z,60
2018-12-01T13:17:03.795Z,55
2018-12-01T13:18:13.978Z,55
2018-12-01T13:19:24.156Z,55
2018-12-01T13:20:34.382Z,55
2018-12-01T13:21:44.666Z,55
2018-12-01T13:22:54.845Z,55
2018-12-01T13:24:05.029Z,50
2018-12-01T13:25:15.213Z,50
2018-12-01T13:26:25.396Z,45
2018-12-01T13:27:35.582Z,45
2018-12-01T13:28:45.763Z,45
2018-12-01T13:29:55.943Z,45
2018-12-01T13:31:06.122Z,45
2018-12-01T13:32:16.305Z,40
2018-12-01T13:33:26.562Z,40
2018-12-01T13:34:36.779Z,40
2018-12-01T13:35:46.959Z,35
2018-12-01T13:36:57.146Z,35
2018-12-01T13:38:07.334Z,35
2018-12-01T13:39:18.123Z,35
2018-12-01T13:40:28.306Z,30
2018-12-01T13:41:38.490Z,30
2018-12-01T13:42:48.403Z,30
2018-12-01T13:43:58.588Z,30
2018-12-01T13:45:08.773Z,30
2018-12-01T13:46:18.957Z,25
2018-12-01T13:47:29.141Z,25
2018-12-01T13:48:39.323Z,25
2018-12-01T13:49:49.508Z,25
2018-12-01T13:50:59.689Z,25
2018-12-01T13:52:10.369Z,25
2018-12-01T13:53:20.550Z,25
2018-12-01T13:54:30.734Z,20
2018-12-01T13:55:40.914Z,20
2018-12-01T13:56:51.259Z,20
2018-12-01T13:58:01.446Z,20
2018-12-01T13:59:11.628Z,20
2018-12-01T14:00:21.811Z,15
2018-12-01T14:01:31.992Z,15
2018-12-01T14:02:42.171Z,15
2018-12-01T14:03:52.359Z,15
2018-12-01T14:05:02.544Z,15
2018-12-01T14:06:12.722Z,10
2018-12-01T14:07:22.905Z,10
2018-12-01T14:08:33.097Z,10
2018-12-01T14:09:43.282Z,10
2018-12-01T14:10:53.489Z,10
2018-12-01T14:12:03.671Z,10
2018-12-01T14:13:13.859Z,10
2018-12-01T14:14:24.140Z,10
2018-12-01T14:15:34.318Z,10
2018-12-01T14:16:45.321Z,10
2018-12-01T14:17:55.517Z,10
2018-12-01T14:19:05.704Z,5
2018-12-01T14:20:15.985Z,5
2018-12-01T14:21:25.905Z,5
2018-12-01T14:22:36.086Z,5
2018-12-01T14:23:46.274Z,5
2018-12-01T14:24:56.500Z,5
2018-12-01T14:26:06.808Z,5
2018-12-01T14:27:16.995Z,5
2018-12-01T14:28:27.180Z,5
2018-12-01T14:29:37.360Z,0
2018-12-01T14:30:47.582Z,0
2018-12-01T14:31:57.858Z,0
2018-12-01T14:33:08.046Z,0
2018-12-01T14:34:18.226Z,0
2018-12-01T14:35:28.408Z,0
2018-12-01T14:36:38.636Z,0
2018-12-01T14:37:48.817Z,0
2018-12-01T14:38:58.999Z,0
2018-12-01T14:40:09.189Z,0
2018-12-01T14:41:19.381Z,0
2018-12-01T14:42:29.561Z,0
2018-12-01T14:43:39.843Z,0
2018-12-01T14:44:50.021Z,0
2018-12-01T14:46:00.212Z,0
2018-12-01T14:47:10.396Z,0
2018-12-01T14:48:20.576Z,0
2018-12-01T14:49:30.765Z,0
2018-12-01T14:50:40.945Z,0
2018-12-01T14:51:51.126Z,0
2018-12-01T14:53:01.307Z,0
2018-12-01T14:54:11.503Z,0
2018-12-01T14:55:21.412Z,0
2018-12-01T14:56:31.591Z,0
2018-12-01T14:57:41.772Z,0
2018-12-01T14:58:52.279Z,0
2018-12-01T15:00:02.468Z,0
2018-12-01T15:01:12.806Z,0
2018-12-01T15:02:22.982Z,0
2018-12-01T15:03:33.360Z,0
2018-12-01T15:04:43.542Z,0
2018-12-01T15:05:53.724Z,0
2018-12-01T15:07:03.912Z,0
2018-12-01T15:08:14.101Z,0
2018-12-01T15:09:24.283Z,0
2018-12-01T15:10:34.474Z,0
2018-12-01T15:11:44.653Z,0
2018-12-01T15:12:54.938Z,0
2018-12-01T15:14:05.123Z,0
2018-12-01T15:15:15.334Z,0
2018-12-01T15:16:25.517Z,0
2018-12-01T15:17:35.703Z,0
2018-12-01T15:18:45.888Z,0
2018-12-01T15:19:56.079Z,0
2018-12-01T15:21:05.995Z,0
2018-12-01T15:22:16.175Z,0
2018-12-01T15:23:26.363Z,0
2018-12-01T15:24:36.644Z,0
2018-12-01T15:25:46.844Z,0
2018-12-01T15:26:57.031Z,0
2018-12-01T15:28:07.212Z,0
2018-12-01T15:29:17.390Z,0
2018-12-01T15:30:27.574Z,0
2018-12-01T15:31:37.753Z,0
2018-12-01T15:32:47.662Z,0
2018-12-01T15:33:57.843Z,0
2018-12-01T15:35:08.022Z,0
2018-12-01T15:36:18.254Z,0
2018-12-01T15:37:28.433Z,0
2018-12-01T15:38:38.619Z,0
2018-12-01T15:39:48.801Z,0
2018-12-01T15:40:58.992Z,0
2018-12-01T15:42:09.172Z,0
2018-12-01T15:43:19.610Z,0
2018-12-01T15:44:29.798Z,0
2018-12-01T15:45:39.989Z,0
2018-12-01T15:46:50.186Z,0
2018-12-01T15:48:01.528Z,0
2018-12-01T15:49:12.929Z,0
2018-12-01T15:50:23.142Z,0
2018-12-01T15:51:33.335Z,0
2018-12-01T15:52:43.514Z,0
2018-12-01T15:53:53.806Z,0
2018-12-01T15:55:03.995Z,0
2018-12-01T15:56:14.174Z,0
2018-12-01T15:57:24.352Z,0
2018-12-01T15:58:34.534Z,0
2018-12-01T15:59:44.768Z,0
2018-12-01T16:00:54.954Z,0
2018-12-01T16:02:05.140Z,0
2018-12-01T16:03:15.319Z,0
2018-12-01T16:04:25.496Z,0
2018-12-01T16:05:35.682Z,0
2018-12-01T16:06:45.872Z,0
2018-12-01T16:07:56.054Z,0
2018-12-01T16:09:06.236Z,0
2018-12-01T16:10:16.420Z,0
2018-12-01T16:11:26.738Z,0
2018-12-01T16:12:36.922Z,0
2018-12-01T16:13:47.103Z,0
2018-12-01T16:14:57.283Z,0
2018-12-01T16:16:07.466Z,0
2018-12-01T16:17:17.743Z,0
2018-12-01T16:18:27.934Z,0
2018-12-01T16:19:38.114Z,0
2018-12-01T16:20:48.296Z,0
2018-12-01T16:21:58.474Z,0
2018-12-01T16:23:08.771Z,0
2018-12-01T16:24:18.718Z,0
2018-12-01T16:25:28.917Z,0
2018-12-01T16:26:39.105Z,0
2018-12-01T16:27:49.300Z,0
2018-12-01T16:28:59.581Z,0
2018-12-01T16:30:09.761Z,0
2018-12-01T16:31:19.939Z,0
2018-12-01T16:32:30.134Z,0
2018-12-01T16:33:40.310Z,0
2018-12-01T16:34:50.602Z,0
2018-12-01T16:36:00.789Z,0
2018-12-01T16:37:10.970Z,0
2018-12-01T16:38:21.151Z,0
2018-12-01T16:39:31.332Z,0
2018-12-01T16:40:41.515Z,0
2018-12-01T16:41:51.694Z,0
2018-12-01T16:43:01.876Z,0
2018-12-01T16:44:12.059Z,0
2018-12-01T16:45:22.236Z,0
2018-12-01T16:46:32.420Z,0
2018-12-01T16:47:42.600Z,0
2018-12-01T16:48:52.781Z,0
2018-12-01T16:50:02.961Z,0
2018-12-01T16:51:13.139Z,0
2018-12-01T16:52:23.418Z,0
2018-12-01T16:53:33.596Z,0
2018-12-01T16:54:43.780Z,0
2018-12-01T16:55:53.965Z,0
2018-12-01T16:57:04.147Z,0
2018-12-01T16:58:14.428Z,0
2018-12-01T16:59:24.611Z,0
2018-12-01T17:00:34.795Z,0